createdAt,value
2019-05-22T00:01:30.295Z,13.20
2019-05-22T00:04:10.125Z,13.10
2019-05-22T00:06:40.906Z,13.00
2019-05-22T00:09:15.056Z,13.00
2019-05-22T00:11:45.062Z,13.00
2019-05-22T00:14:14.322Z,13.10
2019-05-22T00:16:44.367Z,13.00
2019-05-22T00:19:14.302Z,13.00
2019-05-22T00:21:42.609Z,13.10
2019-05-22T00:24:14.035Z,13.00
2019-05-22T00:26:43.070Z,13.00
2019-05-22T00:29:12.656Z,12.90
2019-05-22T00:31:41.861Z,12.90
2019-05-22T00:34:10.963Z,13.00
2019-05-22T00:36:40.234Z,13.00
2019-05-22T00:39:09.484Z,13.00
2019-05-22T00:41:39.457Z,13.00
2019-05-22T00:44:09.914Z,13.00
2019-05-22T00:46:40.736Z,13.00
2019-05-22T00:49:10.409Z,13.00
2019-05-22T00:51:54.448Z,13.00
2019-05-22T00:54:57.718Z,13.00
2019-05-22T00:57:42.269Z,13.10
2019-05-22T01:00:24.717Z,13.20
2019-05-22T01:02:53.921Z,13.10
2019-05-22T01:05:21.706Z,13.20
2019-05-22T01:07:51.528Z,13.10
2019-05-22T01:10:20.638Z,12.90
2019-05-22T01:12:49.821Z,12.90
2019-05-22T01:15:20.785Z,12.90
2019-05-22T01:17:49.758Z,12.90
2019-05-22T01:20:21.990Z,12.90
2019-05-22T01:22:52.292Z,12.90
2019-05-22T01:25:21.552Z,12.90
2019-05-22T01:27:50.350Z,12.90
2019-05-22T01:30:34.841Z,12.90
2019-05-22T01:33:08.112Z,12.70
2019-05-22T01:35:36.468Z,13.00
2019-05-22T01:38:06.146Z,13.10
2019-05-22T01:40:41.464Z,13.10
2019-05-22T01:43:13.571Z,13.10
2019-05-22T01:45:51.964Z,13.00
2019-05-22T01:48:25.887Z,12.90
2019-05-22T01:50:57.094Z,12.90
2019-05-22T01:53:28.819Z,12.90
2019-05-22T01:56:02.269Z,12.90
2019-05-22T01:58:31.335Z,12.90
2019-05-22T02:01:02.591Z,12.90
2019-05-22T02:03:33.882Z,12.90
2019-05-22T02:06:05.257Z,13.00
2019-05-22T02:08:36.985Z,13.00
2019-05-22T02:11:06.707Z,13.00
2019-05-22T02:13:41.974Z,13.00
2019-05-22T02:16:10.794Z,13.20
2019-05-22T02:18:41.344Z,13.00
2019-05-22T02:21:10.118Z,12.80
2019-05-22T02:23:40.063Z,12.80
2019-05-22T02:26:09.666Z,12.70
2019-05-22T02:28:38.533Z,12.80
2019-05-22T02:31:06.672Z,12.90
2019-05-22T02:33:38.531Z,12.80
2019-05-22T02:36:06.977Z,12.70
2019-05-22T02:38:36.942Z,12.60
2019-05-22T02:41:05.330Z,12.70
2019-05-22T02:43:34.521Z,12.60
2019-05-22T02:46:03.007Z,12.60
2019-05-22T02:48:32.519Z,12.40
2019-05-22T02:51:01.127Z,12.50
2019-05-22T02:53:29.598Z,12.50
2019-05-22T02:55:58.218Z,12.50
2019-05-22T02:58:28.004Z,12.50
2019-05-22T03:00:59.643Z,12.40
2019-05-22T03:03:28.495Z,12.30
2019-05-22T03:05:58.369Z,12.40
2019-05-22T03:08:34.022Z,12.40
2019-05-22T03:11:02.412Z,12.40
2019-05-22T03:13:56.962Z,12.40
2019-05-22T03:16:27.726Z,12.40
2019-05-22T03:19:08.320Z,12.50
2019-05-22T03:21:26.989Z,12.60
2019-05-22T03:23:55.022Z,12.50
2019-05-22T03:26:36.192Z,12.40
2019-05-22T03:29:04.425Z,12.40
2019-05-22T03:31:33.982Z,12.50
2019-05-22T03:34:03.906Z,12.40
2019-05-22T03:36:32.414Z,12.40
2019-05-22T03:39:00.691Z,12.30
2019-05-22T03:41:29.600Z,12.20
2019-05-22T03:43:58.683Z,12.20
2019-05-22T03:46:35.211Z,12.30
2019-05-22T03:49:04.798Z,12.50
2019-05-22T03:51:34.400Z,12.30
2019-05-22T03:54:05.039Z,12.30
2019-05-22T03:56:37.472Z,12.30
2019-05-22T03:59:05.826Z,12.30
2019-05-22T04:01:34.856Z,12.20
2019-05-22T04:04:06.068Z,12.30
2019-05-22T04:06:34.545Z,12.40
2019-05-22T04:09:18.598Z,12.30
2019-05-22T04:11:46.857Z,12.20
2019-05-22T04:14:15.343Z,12.10
2019-05-22T04:16:44.185Z,12.10
2019-05-22T04:19:12.233Z,12.10
2019-05-22T04:21:40.594Z,12.10
2019-05-22T04:24:08.812Z,12.10
2019-05-22T04:26:37.799Z,12.10
2019-05-22T04:29:07.025Z,12.10
2019-05-22T04:31:48.824Z,11.90
2019-05-22T04:34:18.793Z,12.00
2019-05-22T04:36:48.291Z,12.10
2019-05-22T04:39:21.389Z,12.00
2019-05-22T04:41:49.832Z,12.10
2019-05-22T04:44:18.464Z,12.10
2019-05-22T04:46:47.138Z,11.90
2019-05-22T04:49:16.258Z,11.90
2019-05-22T04:51:44.956Z,11.90
2019-05-22T04:54:13.576Z,11.90
2019-05-22T04:56:42.233Z,11.90
2019-05-22T04:59:12.193Z,11.90
2019-05-22T05:01:40.958Z,11.90
2019-05-22T05:04:10.123Z,11.90
2019-05-22T05:06:39.101Z,12.00
2019-05-22T05:09:09.210Z,11.90
2019-05-22T05:11:37.542Z,11.80
2019-05-22T05:14:05.973Z,11.70
2019-05-22T05:16:34.381Z,11.80
2019-05-22T05:19:02.957Z,11.90
2019-05-22T05:21:31.331Z,11.80
2019-05-22T05:24:00.414Z,11.90
2019-05-22T05:26:29.895Z,11.90
2019-05-22T05:28:58.685Z,12.00
2019-05-22T05:31:27.314Z,12.10
2019-05-22T05:34:16.498Z,11.90
2019-05-22T05:36:46.245Z,12.00
2019-05-22T05:39:51.145Z,12.10
2019-05-22T05:42:19.773Z,12.10
2019-05-22T05:44:48.303Z,12.10
2019-05-22T05:47:17.262Z,12.10
2019-05-22T05:49:46.291Z,12.10
2019-05-22T05:52:15.626Z,12.10
2019-05-22T05:54:44.365Z,12.10
2019-05-22T05:57:59.808Z,12.10
2019-05-22T06:00:31.394Z,12.20
2019-05-22T06:03:05.482Z,12.10
2019-05-22T06:05:33.969Z,12.10
2019-05-22T06:08:02.540Z,12.10
2019-05-22T06:11:26.262Z,12.20
2019-05-22T06:13:56.838Z,12.30
2019-05-22T06:17:07.986Z,12.20
2019-05-22T06:19:41.005Z,12.20
2019-05-22T06:22:10.245Z,12.30
2019-05-22T06:24:59.434Z,12.40
2019-05-22T06:27:35.070Z,12.40
2019-05-22T06:30:06.796Z,12.40
2019-05-22T06:33:35.995Z,12.40
2019-05-22T06:36:06.958Z,12.50
2019-05-22T06:39:11.842Z,12.40
2019-05-22T06:41:40.868Z,12.40
2019-05-22T06:44:37.729Z,12.40
2019-05-22T06:47:22.277Z,12.30
2019-05-22T06:49:57.297Z,12.40
2019-05-22T06:52:24.800Z,12.50
2019-05-22T06:54:53.559Z,12.50
2019-05-22T06:57:23.726Z,12.20
2019-05-22T07:00:11.668Z,12.40
2019-05-22T07:02:23.247Z,12.40
2019-05-22T07:04:51.639Z,12.50
2019-05-22T07:07:21.616Z,12.50
2019-05-22T07:09:49.269Z,12.20
2019-05-22T07:12:19.334Z,12.30
2019-05-22T07:15:59.345Z,12.50
2019-05-22T07:18:29.058Z,12.70
2019-05-22T07:20:57.519Z,12.70
2019-05-22T07:23:33.098Z,12.60
2019-05-22T07:26:00.878Z,12.60
2019-05-22T07:28:28.372Z,12.40
2019-05-22T07:30:56.063Z,12.50
2019-05-22T07:33:24.330Z,12.60
2019-05-22T07:36:08.699Z,12.60
2019-05-22T07:38:21.959Z,12.50
2019-05-22T07:40:51.589Z,12.80
2019-05-22T07:43:20.175Z,12.70
2019-05-22T07:45:48.510Z,12.70
2019-05-22T07:48:16.012Z,12.80
2019-05-22T07:50:48.817Z,12.80
2019-05-22T07:53:16.019Z,12.80
2019-05-22T07:55:43.958Z,12.80
2019-05-22T07:58:13.742Z,13.00
2019-05-22T08:00:44.730Z,13.10
2019-05-22T08:03:12.265Z,13.00
2019-05-22T08:05:41.447Z,13.10
2019-05-22T08:08:10.004Z,13.30
2019-05-22T08:10:39.125Z,13.50
2019-05-22T08:13:06.978Z,13.50
2019-05-22T08:15:34.392Z,13.60
2019-05-22T08:18:16.291Z,13.50
2019-05-22T08:20:45.099Z,13.30
2019-05-22T08:24:07.178Z,13.20
2019-05-22T08:26:53.368Z,13.00
2019-05-22T08:29:07.571Z,13.00
2019-05-22T08:31:36.826Z,13.00
2019-05-22T08:34:06.030Z,13.10
2019-05-22T08:36:38.490Z,13.00
2019-05-22T08:39:06.257Z,12.90
2019-05-22T08:41:40.956Z,13.00
2019-05-22T08:44:16.671Z,13.20
2019-05-22T08:46:40.143Z,13.40
2019-05-22T08:49:08.702Z,13.40
2019-05-22T08:51:37.347Z,13.60
2019-05-22T08:54:06.479Z,13.60
2019-05-22T08:56:37.291Z,13.50
2019-05-22T08:59:19.136Z,13.40
2019-05-22T09:01:38.155Z,13.50
2019-05-22T09:04:06.835Z,13.50
2019-05-22T09:06:35.066Z,13.60
2019-05-22T09:09:05.120Z,13.80
2019-05-22T09:11:33.726Z,14.00
2019-05-22T09:14:02.127Z,13.90
2019-05-22T09:16:30.674Z,14.10
2019-05-22T09:18:58.870Z,14.20
2019-05-22T09:21:28.330Z,14.10
2019-05-22T09:23:58.809Z,14.20
2019-05-22T09:26:26.875Z,14.20
2019-05-22T09:28:55.076Z,14.20
2019-05-22T09:31:23.884Z,14.30
2019-05-22T09:33:52.601Z,14.40
2019-05-22T09:36:21.031Z,14.50
2019-05-22T09:38:52.161Z,14.60
2019-05-22T09:41:20.113Z,14.60
2019-05-22T09:43:48.743Z,14.50
2019-05-22T09:46:17.204Z,14.70
2019-05-22T09:48:45.705Z,14.80
2019-05-22T09:51:14.681Z,14.90
2019-05-22T09:53:42.872Z,14.90
2019-05-22T09:56:11.895Z,15.10
2019-05-22T09:58:40.234Z,15.30
2019-05-22T10:01:11.945Z,15.80
2019-05-22T10:03:40.281Z,16.20
2019-05-22T10:06:08.708Z,15.90
2019-05-22T10:08:36.886Z,15.80
2019-05-22T10:11:05.552Z,15.80
2019-05-22T10:13:33.760Z,15.70
2019-05-22T10:16:02.740Z,16.00
2019-05-22T10:18:31.710Z,15.90
2019-05-22T10:21:00.265Z,15.60
2019-05-22T10:23:29.178Z,15.60
2019-05-22T10:25:57.540Z,15.50
2019-05-22T10:28:26.056Z,15.70
2019-05-22T10:30:55.548Z,15.90
2019-05-22T10:33:25.007Z,15.90
2019-05-22T10:35:53.286Z,16.10
2019-05-22T10:38:21.742Z,16.10
2019-05-22T10:40:50.147Z,16.70
2019-05-22T10:43:18.678Z,17.60
2019-05-22T10:45:47.494Z,18.10
2019-05-22T10:48:15.919Z,18.60
2019-05-22T10:50:44.101Z,18.80
2019-05-22T10:53:12.366Z,18.50
2019-05-22T10:55:41.387Z,18.60
2019-05-22T10:58:09.442Z,18.40
2019-05-22T11:00:37.591Z,18.40
2019-05-22T11:03:06.402Z,18.50
2019-05-22T11:05:36.018Z,18.80
2019-05-22T11:08:04.598Z,18.20
2019-05-22T11:10:33.399Z,18.40
2019-05-22T11:13:02.200Z,18.80
2019-05-22T11:15:30.697Z,19.20
2019-05-22T11:17:58.930Z,18.90
2019-05-22T11:20:27.490Z,18.60
2019-05-22T11:22:57.009Z,18.30
2019-05-22T11:25:25.721Z,18.40
2019-05-22T11:27:54.380Z,18.80
2019-05-22T11:30:22.953Z,18.90
2019-05-22T11:32:51.734Z,18.80
2019-05-22T11:35:20.766Z,18.80
2019-05-22T11:37:49.066Z,18.90
2019-05-22T11:40:18.772Z,18.60
2019-05-22T11:42:48.806Z,18.20
2019-05-22T11:45:18.542Z,18.00
2019-05-22T11:47:47.873Z,17.90
2019-05-22T11:50:15.956Z,18.10
2019-05-22T11:52:45.418Z,18.60
2019-05-22T11:55:12.784Z,18.90
2019-05-22T11:57:41.698Z,19.10
2019-05-22T12:00:13.264Z,19.30
2019-05-22T12:02:40.532Z,19.60
2019-05-22T12:05:09.974Z,19.90
2019-05-22T12:07:40.570Z,20.00
2019-05-22T12:10:10.282Z,19.90
2019-05-22T12:12:39.804Z,20.30
2019-05-22T12:15:09.758Z,20.40
2019-05-22T12:17:39.090Z,20.30
2019-05-22T12:20:08.697Z,19.90
2019-05-22T12:22:37.318Z,19.80
2019-05-22T12:25:08.174Z,20.00
2019-05-22T12:27:36.946Z,20.30
2019-05-22T12:30:05.176Z,20.60
2019-05-22T12:32:33.695Z,20.40
2019-05-22T12:35:02.227Z,20.00
2019-05-22T12:37:32.189Z,19.20
2019-05-22T12:40:01.652Z,18.70
2019-05-22T12:42:30.407Z,19.00
2019-05-22T12:44:59.003Z,19.00
2019-05-22T12:47:27.795Z,19.10
2019-05-22T12:49:56.397Z,19.60
2019-05-22T12:52:24.833Z,19.90
2019-05-22T12:54:53.786Z,20.00
2019-05-22T12:57:22.859Z,20.00
2019-05-22T12:59:52.153Z,20.00
2019-05-22T13:02:22.245Z,19.90
2019-05-22T13:04:51.677Z,20.10
2019-05-22T13:07:20.908Z,20.20
2019-05-22T13:09:49.445Z,20.10
2019-05-22T13:12:19.313Z,19.70
2019-05-22T13:14:47.970Z,19.40
2019-05-22T13:17:18.239Z,19.70
2019-05-22T13:19:46.007Z,20.00
2019-05-22T13:22:15.974Z,20.10
2019-05-22T13:24:44.212Z,20.30
2019-05-22T13:27:15.061Z,20.40
2019-05-22T13:29:43.771Z,20.50
2019-05-22T13:32:13.469Z,20.40
2019-05-22T13:34:42.029Z,20.60
2019-05-22T13:37:10.474Z,20.90
2019-05-22T13:39:39.442Z,21.00
2019-05-22T13:42:08.007Z,20.20
2019-05-22T13:44:36.410Z,20.10
2019-05-22T13:47:05.909Z,20.00
2019-05-22T13:49:36.766Z,19.70
2019-05-22T13:52:05.354Z,19.60
2019-05-22T13:54:34.403Z,19.50
2019-05-22T13:57:03.529Z,19.40
2019-05-22T13:59:32.218Z,19.30
2019-05-22T14:02:00.479Z,19.40
2019-05-22T14:04:28.927Z,19.20
2019-05-22T14:06:57.772Z,19.10
2019-05-22T14:09:25.832Z,19.40
2019-05-22T14:11:54.665Z,20.00
2019-05-22T14:14:24.124Z,20.20
2019-05-22T14:16:52.605Z,20.40
2019-05-22T14:19:21.190Z,20.60
2019-05-22T14:21:51.810Z,20.70
2019-05-22T14:24:19.490Z,20.70
2019-05-22T14:26:47.909Z,20.70
2019-05-22T14:29:17.126Z,20.60
2019-05-22T14:31:46.021Z,20.30
2019-05-22T14:34:14.911Z,20.20
2019-05-22T14:36:44.754Z,20.10
2019-05-22T14:39:12.320Z,20.10
2019-05-22T14:41:40.626Z,19.80
2019-05-22T14:44:09.043Z,19.70
2019-05-22T14:46:37.380Z,19.90
2019-05-22T14:49:05.674Z,19.90
2019-05-22T14:51:34.250Z,19.60
2019-05-22T14:54:03.063Z,19.90
2019-05-22T14:56:32.118Z,20.30
2019-05-22T14:59:00.913Z,20.40
2019-05-22T15:01:29.806Z,20.40
2019-05-22T15:03:58.401Z,20.10
2019-05-22T15:06:26.740Z,19.90
2019-05-22T15:08:55.437Z,19.70
2019-05-22T15:11:23.990Z,19.40
2019-05-22T15:13:52.562Z,19.20
2019-05-22T15:16:22.585Z,19.50
2019-05-22T15:18:51.825Z,19.80
2019-05-22T15:21:20.203Z,20.10
2019-05-22T15:23:50.567Z,20.30
2019-05-22T15:26:18.964Z,20.40
2019-05-22T15:28:47.194Z,20.30
2019-05-22T15:31:15.571Z,20.30
2019-05-22T15:33:44.243Z,20.00
2019-05-22T15:36:16.242Z,19.80
2019-05-22T15:38:46.841Z,19.60
2019-05-22T15:41:15.241Z,19.70
2019-05-22T15:43:50.399Z,19.80
2019-05-22T15:46:16.322Z,19.80
2019-05-22T15:48:46.297Z,19.70
2019-05-22T15:51:18.642Z,19.80
2019-05-22T15:53:47.666Z,19.90
2019-05-22T15:56:17.641Z,19.90
2019-05-22T15:58:50.886Z,19.90
2019-05-22T16:01:21.427Z,19.60
2019-05-22T16:03:50.918Z,19.70
2019-05-22T16:06:21.451Z,19.80
2019-05-22T16:08:49.557Z,20.10
2019-05-22T16:11:18.134Z,20.40
2019-05-22T16:13:46.801Z,20.30
2019-05-22T16:16:16.255Z,20.30
2019-05-22T16:18:45.570Z,20.30
2019-05-22T16:21:15.574Z,20.20
2019-05-22T16:23:43.884Z,20.30
2019-05-22T16:26:13.099Z,20.20
2019-05-22T16:28:43.903Z,20.30
2019-05-22T16:31:12.833Z,20.30
2019-05-22T16:33:42.494Z,20.30
2019-05-22T16:36:11.441Z,20.30
2019-05-22T16:38:41.321Z,20.40
2019-05-22T16:41:10.398Z,20.20
2019-05-22T16:43:49.058Z,20.20
2019-05-22T16:46:14.319Z,20.40
2019-05-22T16:48:44.109Z,20.30
2019-05-22T16:51:14.426Z,20.30
2019-05-22T16:53:49.410Z,20.30
2019-05-22T16:56:18.862Z,20.20
2019-05-22T16:58:48.103Z,20.20
2019-05-22T17:01:19.147Z,20.30
2019-05-22T17:03:51.090Z,20.40
2019-05-22T17:06:20.183Z,20.10
2019-05-22T17:08:50.389Z,20.10
2019-05-22T17:11:18.579Z,20.00
2019-05-22T17:13:48.177Z,20.10
2019-05-22T17:16:16.771Z,19.90
2019-05-22T17:18:47.953Z,19.90
2019-05-22T17:21:16.677Z,20.00
2019-05-22T17:23:46.570Z,20.10
2019-05-22T17:26:15.727Z,20.00
2019-05-22T17:28:44.715Z,20.00
2019-05-22T17:31:14.191Z,19.90
2019-05-22T17:33:43.328Z,20.00
2019-05-22T17:36:12.903Z,20.00
2019-05-22T17:38:41.517Z,20.00
2019-05-22T17:41:10.297Z,19.90
2019-05-22T17:43:40.158Z,19.90
2019-05-22T17:46:08.943Z,19.70
2019-05-22T17:48:39.188Z,19.70
2019-05-22T17:51:07.809Z,19.70
2019-05-22T17:53:36.381Z,19.60
2019-05-22T17:56:05.806Z,19.60
2019-05-22T17:58:33.986Z,19.60
2019-05-22T18:01:04.200Z,19.50
2019-05-22T18:03:33.171Z,19.50
2019-05-22T18:06:02.661Z,19.30
2019-05-22T18:08:30.956Z,19.30
2019-05-22T18:11:02.452Z,19.40
2019-05-22T18:13:31.669Z,19.20
2019-05-22T18:16:04.195Z,19.20
2019-05-22T18:18:30.059Z,19.00
2019-05-22T18:20:57.001Z,19.10
2019-05-22T18:23:25.413Z,19.10
2019-05-22T18:25:53.405Z,19.10
2019-05-22T18:28:21.790Z,19.10
2019-05-22T18:30:49.928Z,19.10
2019-05-22T18:33:17.945Z,18.90
2019-05-22T18:35:46.732Z,18.70
2019-05-22T18:38:14.962Z,18.80
2019-05-22T18:40:43.483Z,18.90
2019-05-22T18:43:11.759Z,18.80
2019-05-22T18:45:40.338Z,18.90
2019-05-22T18:48:09.092Z,18.60
2019-05-22T18:50:37.888Z,18.60
2019-05-22T18:53:06.446Z,18.80
2019-05-22T18:55:34.597Z,18.80
2019-05-22T18:58:02.758Z,18.80
2019-05-22T19:00:32.100Z,18.60
2019-05-22T19:03:00.624Z,18.50
2019-05-22T19:05:30.964Z,18.40
2019-05-22T19:07:59.229Z,18.30
2019-05-22T19:10:27.920Z,18.30
2019-05-22T19:12:56.073Z,18.00
2019-05-22T19:15:25.041Z,17.90
2019-05-22T19:17:54.181Z,17.90
2019-05-22T19:20:22.521Z,17.80
2019-05-22T19:23:00.117Z,17.70
2019-05-22T19:25:21.011Z,17.60
2019-05-22T19:27:49.075Z,17.50
2019-05-22T19:30:20.114Z,17.40
2019-05-22T19:32:49.021Z,17.20
2019-05-22T19:35:17.353Z,17.10
2019-05-22T19:37:46.253Z,17.00
2019-05-22T19:40:15.482Z,16.90
2019-05-22T19:42:43.647Z,16.80
2019-05-22T19:45:12.439Z,16.70
2019-05-22T19:47:49.654Z,16.60
2019-05-22T19:50:23.333Z,16.50
2019-05-22T19:52:49.974Z,16.40
2019-05-22T19:55:19.171Z,16.30
2019-05-22T19:57:48.846Z,16.20
2019-05-22T20:00:16.250Z,16.10
2019-05-22T20:02:45.241Z,16.10
2019-05-22T20:05:13.750Z,16.00
2019-05-22T20:07:42.048Z,15.90
2019-05-22T20:10:10.670Z,15.90
2019-05-22T20:12:39.625Z,15.80
2019-05-22T20:15:08.355Z,15.70
2019-05-22T20:17:36.975Z,15.60
2019-05-22T20:20:06.788Z,15.50
2019-05-22T20:22:35.429Z,15.40
2019-05-22T20:25:04.880Z,15.40
2019-05-22T20:27:33.986Z,15.40
2019-05-22T20:30:03.061Z,15.40
2019-05-22T20:32:31.200Z,15.40
2019-05-22T20:35:00.008Z,15.40
2019-05-22T20:37:32.365Z,15.20
2019-05-22T20:40:00.996Z,15.20
2019-05-22T20:42:31.182Z,15.20
2019-05-22T20:44:59.757Z,15.10
2019-05-22T20:47:28.956Z,15.10
2019-05-22T20:49:59.105Z,15.10
2019-05-22T20:52:29.520Z,15.00
2019-05-22T20:54:59.175Z,15.00
2019-05-22T20:57:27.520Z,14.80
2019-05-22T20:59:56.086Z,14.80
2019-05-22T21:02:25.027Z,14.60
2019-05-22T21:04:53.109Z,14.60
2019-05-22T21:07:29.098Z,14.70
2019-05-22T21:09:57.658Z,14.80
2019-05-22T21:12:26.717Z,14.70
2019-05-22T21:14:55.601Z,14.60
2019-05-22T21:17:25.692Z,14.70
2019-05-22T21:19:55.317Z,14.70
2019-05-22T21:22:26.327Z,14.70
2019-05-22T21:24:54.824Z,14.60
2019-05-22T21:27:23.469Z,14.50
2019-05-22T21:29:53.281Z,14.50
2019-05-22T21:32:23.184Z,14.50
2019-05-22T21:34:51.755Z,14.50
2019-05-22T21:37:20.458Z,14.60
2019-05-22T21:39:50.048Z,14.50
2019-05-22T21:42:18.952Z,14.60
2019-05-22T21:44:47.658Z,14.50
2019-05-22T21:47:18.218Z,14.50
2019-05-22T21:49:46.405Z,14.50
2019-05-22T21:52:15.029Z,14.50
2019-05-22T21:54:43.688Z,14.50
2019-05-22T21:57:12.769Z,14.50
2019-05-22T21:59:41.077Z,14.50
2019-05-22T22:02:15.013Z,14.50
2019-05-22T22:04:43.814Z,14.40
2019-05-22T22:07:13.411Z,14.40
2019-05-22T22:09:42.708Z,14.40
2019-05-22T22:12:14.858Z,14.40
2019-05-22T22:14:44.016Z,14.40
2019-05-22T22:17:14.191Z,14.40
2019-05-22T22:19:42.673Z,14.40
2019-05-22T22:22:15.634Z,14.30
2019-05-22T22:24:44.407Z,14.30
2019-05-22T22:27:13.278Z,14.30
2019-05-22T22:29:41.780Z,14.20
2019-05-22T22:32:11.551Z,14.20
2019-05-22T22:34:47.081Z,14.10
2019-05-22T22:37:15.910Z,14.10
2019-05-22T22:39:48.832Z,14.00
2019-05-22T22:42:20.197Z,14.00
2019-05-22T22:44:51.918Z,14.00
2019-05-22T22:47:27.353Z,13.90
2019-05-22T22:49:57.020Z,13.90
2019-05-22T22:52:27.298Z,13.90
2019-05-22T22:54:56.171Z,13.80
2019-05-22T22:57:25.261Z,13.80
2019-05-22T22:59:53.573Z,13.80
2019-05-22T23:02:25.745Z,13.70
2019-05-22T23:04:54.393Z,13.70
2019-05-22T23:07:24.757Z,13.70
2019-05-22T23:09:53.773Z,13.60
2019-05-22T23:12:21.870Z,13.60
2019-05-22T23:14:56.337Z,13.60
2019-05-22T23:17:25.384Z,13.40
2019-05-22T23:19:52.902Z,13.40
2019-05-22T23:22:27.036Z,13.40
2019-05-22T23:24:57.482Z,13.40
2019-05-22T23:27:26.758Z,13.40
2019-05-22T23:29:56.611Z,13.40
2019-05-22T23:32:25.289Z,13.40
2019-05-22T23:34:54.845Z,13.30
2019-05-22T23:37:23.566Z,13.30
2019-05-22T23:39:52.762Z,13.30
2019-05-22T23:42:28.920Z,13.30
2019-05-22T23:44:59.495Z,13.30
2019-05-22T23:47:27.892Z,13.20
2019-05-22T23:49:56.545Z,13.20
2019-05-22T23:52:26.302Z,13.20
2019-05-22T23:54:55.238Z,13.20
2019-05-22T23:57:25.853Z,13.10
2019-05-22T23:59:58.262Z,13.00
